createdAt,value
2023-12-09T00:00:44.106Z,98818.75
2023-12-09T00:03:11.098Z,98808.34
2023-12-09T00:05:38.141Z,98818.03
2023-12-09T00:08:05.555Z,98787.53
2023-12-09T00:10:32.483Z,98807.69
2023-12-09T00:12:59.389Z,98807.34
2023-12-09T00:15:26.283Z,98808.13
2023-12-09T00:17:53.204Z,98815.41
2023-12-09T00:20:20.153Z,98817.09
2023-12-09T00:22:47.022Z,98809.25
2023-12-09T00:25:13.926Z,98821.47
2023-12-09T00:27:40.850Z,98816.06
2023-12-09T00:30:08.936Z,98824.22
2023-12-09T00:32:36.128Z,98817.59
2023-12-09T00:35:03.257Z,98813.69
2023-12-09T00:37:30.409Z,98815.06
2023-12-09T00:39:57.245Z,98818.38
2023-12-09T00:42:26.537Z,98821.66
2023-12-09T00:44:53.813Z,98813.75
2023-12-09T00:47:20.674Z,98813.78
2023-12-09T00:49:47.615Z,98810.53
2023-12-09T00:52:14.521Z,98805.91
2023-12-09T00:54:41.465Z,98809.13
2023-12-09T00:57:08.475Z,98806.41
2023-12-09T00:59:35.890Z,98807.16
2023-12-09T01:02:02.843Z,98781.25
2023-12-09T01:04:29.823Z,98804.59
2023-12-09T01:06:57.944Z,98803.78
2023-12-09T01:09:25.443Z,98807.97
2023-12-09T01:11:54.634Z,98810.47
2023-12-09T01:14:21.980Z,98805.34
2023-12-09T01:16:48.876Z,98813.06
2023-12-09T01:19:15.821Z,98814.69
2023-12-09T01:21:43.700Z,98816.66
2023-12-09T01:24:10.610Z,98825.94
2023-12-09T01:26:37.606Z,98833.66
2023-12-09T01:29:05.499Z,98836.22
2023-12-09T01:31:32.603Z,98841.63
2023-12-09T01:33:59.628Z,98842.22
2023-12-09T01:36:26.678Z,98847.50
2023-12-09T01:38:53.656Z,98853.72
2023-12-09T01:41:21.051Z,98865.22
2023-12-09T01:43:51.726Z,98865.41
2023-12-09T01:46:20.651Z,98866.13
2023-12-09T01:48:49.177Z,98865.09
2023-12-09T01:51:18.725Z,98838.56
2023-12-09T01:53:45.892Z,98869.28
2023-12-09T01:56:15.650Z,98870.94
2023-12-09T01:58:42.761Z,98878.47
2023-12-09T02:01:10.044Z,98874.97
2023-12-09T02:03:37.770Z,98880.50
2023-12-09T02:06:04.982Z,98878.63
2023-12-09T02:08:32.698Z,98885.13
2023-12-09T02:11:40.467Z,98890.78
2023-12-09T02:14:14.195Z,98883.78
2023-12-09T02:16:53.612Z,98891.16
2023-12-09T02:19:22.290Z,98886.63
2023-12-09T02:22:10.550Z,98880.41
2023-12-09T02:24:37.753Z,98866.06
2023-12-09T02:27:22.593Z,98889.63
2023-12-09T02:30:09.315Z,98880.25
2023-12-09T02:32:38.557Z,98874.97
2023-12-09T02:35:08.887Z,98855.38
2023-12-09T02:37:36.630Z,98865.34
2023-12-09T02:40:04.682Z,98861.91
2023-12-09T02:42:33.696Z,98857.50
2023-12-09T02:45:00.918Z,98852.34
2023-12-09T02:47:27.845Z,98850.63
2023-12-09T02:49:55.362Z,98842.06
2023-12-09T02:52:22.467Z,98844.75
2023-12-09T02:54:49.401Z,98841.19
2023-12-09T02:57:16.271Z,98844.63
2023-12-09T02:59:43.250Z,98846.59
2023-12-09T03:02:10.110Z,98843.09
2023-12-09T03:04:36.961Z,98832.66
2023-12-09T03:07:04.035Z,98822.34
2023-12-09T03:09:30.941Z,98813.72
2023-12-09T03:11:57.885Z,98815.53
2023-12-09T03:14:24.873Z,98815.53
2023-12-09T03:16:51.728Z,98806.91
2023-12-09T03:19:18.682Z,98812.91
2023-12-09T03:21:45.543Z,98809.44
2023-12-09T03:24:12.449Z,98783.13
2023-12-09T03:26:39.482Z,98788.03
2023-12-09T03:29:06.337Z,98794.81
2023-12-09T03:31:33.171Z,98793.97
2023-12-09T03:34:00.270Z,98781.34
2023-12-09T03:36:27.293Z,98784.53
2023-12-09T03:38:54.327Z,98791.47
2023-12-09T03:41:23.891Z,98804.28
2023-12-09T03:43:52.207Z,98768.00
2023-12-09T03:46:19.147Z,98789.72
2023-12-09T03:48:46.462Z,98795.66
2023-12-09T03:51:13.439Z,98788.88
2023-12-09T03:53:42.945Z,98793.97
2023-12-09T03:56:12.688Z,98791.63
2023-12-09T03:58:40.525Z,98782.94
2023-12-09T04:01:07.481Z,98783.78
2023-12-09T04:03:34.482Z,98785.63
2023-12-09T04:06:02.489Z,98786.44
2023-12-09T04:08:30.029Z,98788.09
2023-12-09T04:10:57.233Z,98793.31
2023-12-09T04:13:24.093Z,98782.94
2023-12-09T04:15:51.262Z,98770.97
2023-12-09T04:18:18.604Z,98785.47
2023-12-09T04:20:45.646Z,98774.88
2023-12-09T04:23:12.471Z,98777.19
2023-12-09T04:25:39.379Z,98776.13
2023-12-09T04:28:06.503Z,98787.97
2023-12-09T04:30:33.387Z,98783.72
2023-12-09T04:33:00.739Z,98786.31
2023-12-09T04:35:27.636Z,98787.38
2023-12-09T04:37:54.499Z,98794.31
2023-12-09T04:40:21.684Z,98817.28
2023-12-09T04:42:48.748Z,98813.00
2023-12-09T04:45:15.691Z,98819.91
2023-12-09T04:47:42.715Z,98811.38
2023-12-09T04:50:10.046Z,98809.75
2023-12-09T04:52:37.232Z,98814.16
2023-12-09T04:55:05.094Z,98809.19
2023-12-09T04:57:32.735Z,98797.63
2023-12-09T04:59:59.763Z,98805.91
2023-12-09T05:02:27.029Z,98821.28
2023-12-09T05:04:54.204Z,98810.19
2023-12-09T05:07:21.154Z,98818.81
2023-12-09T05:09:48.005Z,98814.59
2023-12-09T05:12:15.471Z,98817.25
2023-12-09T05:14:42.326Z,98816.50
2023-12-09T05:17:09.176Z,98818.53
2023-12-09T05:19:36.363Z,98809.97
2023-12-09T05:22:03.365Z,98812.44
2023-12-09T05:24:30.260Z,98798.00
2023-12-09T05:26:58.817Z,98800.56
2023-12-09T05:29:25.688Z,98793.03
2023-12-09T05:31:53.780Z,98790.28
2023-12-09T05:34:20.798Z,98792.91
2023-12-09T05:36:47.695Z,98793.03
2023-12-09T05:39:16.190Z,98792.13
2023-12-09T05:41:43.394Z,98793.84
2023-12-09T05:44:10.342Z,98778.50
2023-12-09T05:46:37.607Z,98778.63
2023-12-09T05:49:04.717Z,98779.56
2023-12-09T05:51:31.754Z,98776.97
2023-12-09T05:53:58.808Z,98761.53
2023-12-09T05:56:26.260Z,98765.03
2023-12-09T05:58:53.082Z,98772.63
2023-12-09T06:01:20.116Z,98774.38
2023-12-09T06:03:46.959Z,98778.63
2023-12-09T06:06:13.906Z,98774.34
2023-12-09T06:08:41.216Z,98769.19
2023-12-09T06:11:08.076Z,98770.97
2023-12-09T06:13:34.905Z,98770.00
2023-12-09T06:16:01.726Z,98776.16
2023-12-09T06:18:28.647Z,98768.50
2023-12-09T06:20:55.606Z,98771.84
2023-12-09T06:23:22.601Z,98771.03
2023-12-09T06:25:49.573Z,98766.69
2023-12-09T06:28:16.511Z,98767.59
2023-12-09T06:30:43.392Z,98763.31
2023-12-09T06:33:10.335Z,98758.97
2023-12-09T06:35:37.454Z,98765.09
2023-12-09T06:38:04.378Z,98761.59
2023-12-09T06:40:31.182Z,98751.44
2023-12-09T06:42:58.193Z,98745.50
2023-12-09T06:45:25.095Z,98757.44
2023-12-09T06:47:55.180Z,98761.72
2023-12-09T06:50:22.945Z,98759.16
2023-12-09T06:52:50.428Z,98731.09
2023-12-09T06:55:17.315Z,98748.06
2023-12-09T06:57:44.326Z,98750.59
2023-12-09T07:00:13.855Z,98750.53
2023-12-09T07:02:49.038Z,98747.13
2023-12-09T07:05:23.905Z,98730.22
2023-12-09T07:07:52.072Z,98750.50
2023-12-09T07:10:19.306Z,98736.16
2023-12-09T07:12:46.399Z,98754.75
2023-12-09T07:15:13.710Z,98742.72
2023-12-09T07:17:40.922Z,98742.78
2023-12-09T07:20:08.629Z,98746.22
2023-12-09T07:22:35.511Z,98747.94
2023-12-09T07:25:02.353Z,98729.56
2023-12-09T07:27:29.278Z,98756.41
2023-12-09T07:29:56.133Z,98752.16
2023-12-09T07:32:23.272Z,98759.81
2023-12-09T07:34:50.325Z,98753.06
2023-12-09T07:37:18.947Z,98771.91
2023-12-09T07:39:45.863Z,98775.38
2023-12-09T07:42:12.889Z,98777.16
2023-12-09T07:44:39.728Z,98771.09
2023-12-09T07:47:06.604Z,98766.13
2023-12-09T07:49:33.589Z,98765.16
2023-12-09T07:52:00.814Z,98745.00
2023-12-09T07:54:28.543Z,98766.69
2023-12-09T07:56:55.491Z,98761.47
2023-12-09T07:59:22.346Z,98751.13
2023-12-09T08:01:49.281Z,98744.38
2023-12-09T08:04:16.340Z,98743.44
2023-12-09T08:06:43.242Z,98752.78
2023-12-09T08:09:10.822Z,98747.69
2023-12-09T08:11:37.788Z,98753.56
2023-12-09T08:14:04.651Z,98746.69
2023-12-09T08:16:31.741Z,98734.75
2023-12-09T08:18:58.767Z,98733.72
2023-12-09T08:21:26.649Z,98722.50
2023-12-09T08:23:53.610Z,98727.66
2023-12-09T08:26:20.598Z,98695.44
2023-12-09T08:28:47.554Z,98719.00
2023-12-09T08:31:14.439Z,98708.63
2023-12-09T08:33:42.165Z,98705.16
2023-12-09T08:36:10.117Z,98709.88
2023-12-09T08:38:37.092Z,98703.16
2023-12-09T08:41:04.245Z,98708.75
2023-12-09T08:43:31.184Z,98712.94
2023-12-09T08:45:58.901Z,98664.91
2023-12-09T08:48:25.956Z,98686.06
2023-12-09T08:50:52.946Z,98705.22
2023-12-09T08:53:19.885Z,98705.41
2023-12-09T08:55:46.784Z,98709.03
2023-12-09T08:58:13.624Z,98717.34
2023-12-09T09:00:41.034Z,98712.88
2023-12-09T09:03:08.262Z,98708.91
2023-12-09T09:05:35.355Z,98715.03
2023-12-09T09:08:02.297Z,98712.34
2023-12-09T09:10:29.175Z,98706.75
2023-12-09T09:12:56.161Z,98699.75
2023-12-09T09:15:23.336Z,98697.22
2023-12-09T09:17:51.711Z,98697.53
2023-12-09T09:20:18.741Z,98691.53
2023-12-09T09:22:47.773Z,98685.03
2023-12-09T09:25:16.695Z,98680.31
2023-12-09T09:27:43.829Z,98669.78
2023-12-09T09:30:11.304Z,98680.50
2023-12-09T09:32:38.216Z,98681.56
2023-12-09T09:35:05.672Z,98676.38
2023-12-09T09:37:32.637Z,98679.66
2023-12-09T09:39:59.564Z,98678.09
2023-12-09T09:42:43.896Z,98664.75
2023-12-09T09:45:31.522Z,98668.72
2023-12-09T09:48:08.130Z,98638.81
2023-12-09T09:50:42.946Z,98640.81
2023-12-09T09:53:14.247Z,98636.09
2023-12-09T09:55:43.299Z,98634.44
2023-12-09T09:58:10.284Z,98632.75
2023-12-09T10:00:37.355Z,98628.44
2023-12-09T10:03:04.730Z,98625.50
2023-12-09T10:05:32.360Z,98632.75
2023-12-09T10:08:00.424Z,98630.09
2023-12-09T10:10:28.565Z,98607.59
2023-12-09T10:12:55.425Z,98627.34
2023-12-09T10:15:22.484Z,98628.00
2023-12-09T10:17:49.488Z,98623.81
2023-12-09T10:20:16.542Z,98614.31
2023-12-09T10:22:43.504Z,98609.31
2023-12-09T10:25:10.762Z,98602.47
2023-12-09T10:27:41.420Z,98590.50
2023-12-09T10:30:09.901Z,98570.78
2023-12-09T10:32:37.230Z,98566.56
2023-12-09T10:35:06.061Z,98547.88
2023-12-09T10:37:33.291Z,98552.91
2023-12-09T10:40:09.750Z,98553.63
2023-12-09T10:42:40.143Z,98549.13
2023-12-09T10:45:09.624Z,98537.09
2023-12-09T10:47:36.988Z,98527.63
2023-12-09T10:50:05.319Z,98508.25
2023-12-09T10:52:33.698Z,98519.84
2023-12-09T10:55:01.545Z,98509.44
2023-12-09T10:57:30.794Z,98511.69
2023-12-09T10:59:58.435Z,98505.75
2023-12-09T11:02:27.941Z,98481.56
2023-12-09T11:04:56.094Z,98503.16
2023-12-09T11:07:24.359Z,98504.03
2023-12-09T11:09:51.584Z,98476.06
2023-12-09T11:12:29.463Z,98485.81
2023-12-09T11:14:57.384Z,98472.91
2023-12-09T11:17:38.127Z,98454.34
2023-12-09T11:20:15.174Z,98465.94
2023-12-09T11:22:44.768Z,98452.97
2023-12-09T11:25:20.375Z,98433.25
2023-12-09T11:27:52.038Z,98427.06
2023-12-09T11:30:46.573Z,98410.84
2023-12-09T11:33:14.861Z,98403.75
2023-12-09T11:35:46.997Z,98384.84
2023-12-09T11:38:15.261Z,98370.56
2023-12-09T11:40:43.743Z,98388.94
2023-12-09T11:43:11.498Z,98381.94
2023-12-09T11:45:38.605Z,98368.97
2023-12-09T11:48:06.669Z,98371.41
2023-12-09T11:50:33.669Z,98376.53
2023-12-09T11:53:01.083Z,98371.31
2023-12-09T11:55:27.932Z,98360.22
2023-12-09T11:57:54.899Z,98346.38
2023-12-09T12:00:22.581Z,98333.31
2023-12-09T12:02:50.141Z,98334.69
2023-12-09T12:05:17.273Z,98320.75
2023-12-09T12:07:44.242Z,98236.41
2023-12-09T12:10:11.977Z,98305.19
2023-12-09T12:12:39.922Z,98303.97
2023-12-09T12:15:07.755Z,98282.13
2023-12-09T12:17:40.134Z,98268.63
2023-12-09T12:20:10.958Z,98303.91
2023-12-09T12:22:37.880Z,98286.31
2023-12-09T12:25:05.586Z,98296.78
2023-12-09T12:27:40.887Z,98275.78
2023-12-09T12:30:09.248Z,98267.81
2023-12-09T12:32:39.564Z,98259.78
2023-12-09T12:35:07.630Z,98284.31
2023-12-09T12:37:34.874Z,98246.13
2023-12-09T12:40:02.947Z,98250.22
2023-12-09T12:42:31.100Z,98246.41
2023-12-09T12:44:59.444Z,98236.78
2023-12-09T12:47:26.538Z,98221.97
2023-12-09T12:49:53.809Z,98224.13
2023-12-09T12:52:20.694Z,98212.53
2023-12-09T12:54:48.178Z,98200.97
2023-12-09T12:57:15.077Z,98199.44
2023-12-09T12:59:41.935Z,98201.09
2023-12-09T13:02:09.363Z,98187.03
2023-12-09T13:04:36.437Z,98180.41
2023-12-09T13:07:03.765Z,98171.88
2023-12-09T13:09:30.724Z,98168.22
2023-12-09T13:11:57.740Z,98163.19
2023-12-09T13:14:24.615Z,98156.69
2023-12-09T13:16:51.634Z,98166.75
2023-12-09T13:19:19.400Z,98168.81
2023-12-09T13:21:47.592Z,98162.38
2023-12-09T13:24:14.632Z,98166.47
2023-12-09T13:26:41.603Z,98132.25
2023-12-09T13:29:08.574Z,98153.81
2023-12-09T13:31:36.261Z,98133.94
2023-12-09T13:34:06.280Z,98119.22
2023-12-09T13:36:35.175Z,98119.00
2023-12-09T13:39:02.416Z,98110.44
2023-12-09T13:41:31.336Z,98102.53
2023-12-09T13:43:58.591Z,98109.59
2023-12-09T13:46:26.754Z,98117.31
2023-12-09T13:48:53.705Z,98106.84
2023-12-09T13:51:20.815Z,98098.41
2023-12-09T13:53:47.816Z,98076.97
2023-12-09T13:56:14.804Z,98061.13
2023-12-09T13:58:41.750Z,98057.41
2023-12-09T14:01:08.815Z,98026.94
2023-12-09T14:03:35.808Z,98022.81
2023-12-09T14:06:02.949Z,98016.22
2023-12-09T14:08:31.838Z,98028.25
2023-12-09T14:10:59.857Z,98040.69
2023-12-09T14:13:26.878Z,98038.34
2023-12-09T14:15:54.208Z,98008.53
2023-12-09T14:18:21.352Z,98008.69
2023-12-09T14:20:48.280Z,98001.25
2023-12-09T14:23:15.261Z,97992.63
2023-12-09T14:25:43.228Z,98016.13
2023-12-09T14:28:10.672Z,98022.03
2023-12-09T14:30:37.528Z,97976.00
2023-12-09T14:33:04.557Z,97987.06
2023-12-09T14:35:32.537Z,97993.78
2023-12-09T14:37:59.523Z,97997.69
2023-12-09T14:40:26.366Z,98010.09
2023-12-09T14:42:53.166Z,98011.72
2023-12-09T14:45:20.021Z,98005.44
2023-12-09T14:47:54.318Z,98008.22
2023-12-09T14:50:28.536Z,97988.75
2023-12-09T14:52:55.559Z,97992.94
2023-12-09T14:55:22.474Z,97981.84
2023-12-09T14:57:49.502Z,97967.28
2023-12-09T15:00:17.104Z,97957.16
2023-12-09T15:02:43.987Z,97958.72
2023-12-09T15:05:11.639Z,97948.94
2023-12-09T15:07:38.771Z,97941.38
2023-12-09T15:10:06.824Z,97926.03
2023-12-09T15:12:34.557Z,97915.91
2023-12-09T15:15:03.735Z,97910.53
2023-12-09T15:17:33.097Z,97901.94
2023-12-09T15:20:01.413Z,97894.38
2023-12-09T15:22:28.667Z,97886.81
2023-12-09T15:24:55.709Z,97877.41
2023-12-09T15:27:22.694Z,97873.75
2023-12-09T15:29:49.580Z,97860.84
2023-12-09T15:32:16.438Z,97861.03
2023-12-09T15:34:43.339Z,97828.78
2023-12-09T15:37:10.247Z,97843.56
2023-12-09T15:39:40.390Z,97831.59
2023-12-09T15:42:07.851Z,97823.94
2023-12-09T15:44:34.953Z,97817.13
2023-12-09T15:47:01.820Z,97807.66
2023-12-09T15:49:28.914Z,97809.00
2023-12-09T15:51:55.956Z,97787.69
2023-12-09T15:54:24.025Z,97773.06
2023-12-09T15:56:50.971Z,97768.06
2023-12-09T15:59:17.792Z,97762.06
2023-12-09T16:01:44.747Z,97739.56
2023-12-09T16:04:11.741Z,97746.78
2023-12-09T16:06:39.881Z,97750.28
2023-12-09T16:09:06.784Z,97729.19
2023-12-09T16:11:34.854Z,97719.69
2023-12-09T16:14:01.925Z,97723.34
2023-12-09T16:16:29.161Z,97711.38
2023-12-09T16:18:56.166Z,97705.16
2023-12-09T16:21:23.375Z,97681.78
2023-12-09T16:23:51.651Z,97690.59
2023-12-09T16:26:18.544Z,97682.91
2023-12-09T16:28:46.688Z,97683.75
2023-12-09T16:31:16.513Z,97666.66
2023-12-09T16:33:43.636Z,97664.81
2023-12-09T16:36:11.019Z,97653.34
2023-12-09T16:38:37.932Z,97651.19
2023-12-09T16:41:05.125Z,97645.03
2023-12-09T16:43:31.980Z,97633.19
2023-12-09T16:45:58.982Z,97607.53
2023-12-09T16:48:26.399Z,97600.63
2023-12-09T16:50:53.307Z,97598.16
2023-12-09T16:53:20.514Z,97585.81
2023-12-09T16:55:47.393Z,97587.50
2023-12-09T16:58:14.338Z,97565.97
2023-12-09T17:00:41.273Z,97552.91
2023-12-09T17:03:08.600Z,97542.78
2023-12-09T17:05:35.604Z,97540.19
2023-12-09T17:08:02.517Z,97534.19
2023-12-09T17:10:29.410Z,97517.91
2023-12-09T17:12:56.407Z,97519.56
2023-12-09T17:15:25.485Z,97495.00
2023-12-09T17:17:52.366Z,97484.50
2023-12-09T17:20:19.321Z,97486.06
2023-12-09T17:22:49.338Z,97475.66
2023-12-09T17:25:18.212Z,97482.19
2023-12-09T17:27:45.285Z,97467.94
2023-12-09T17:30:16.154Z,97471.34
2023-12-09T17:32:43.669Z,97461.94
2023-12-09T17:35:10.735Z,97452.00
2023-12-09T17:37:37.917Z,97456.03
2023-12-09T17:40:07.523Z,97452.06
2023-12-09T17:42:34.592Z,97440.97
2023-12-09T17:45:01.772Z,97437.75
2023-12-09T17:47:28.693Z,97441.84
2023-12-09T17:49:55.702Z,97422.38
2023-12-09T17:52:25.700Z,97419.91
2023-12-09T17:54:52.720Z,97394.91
2023-12-09T17:57:19.655Z,97397.88
2023-12-09T17:59:46.582Z,97392.81
2023-12-09T18:02:13.551Z,97375.03
2023-12-09T18:04:40.427Z,97369.16
2023-12-09T18:07:07.531Z,97350.22
2023-12-09T18:09:34.461Z,97348.53
2023-12-09T18:12:01.393Z,97334.34
2023-12-09T18:14:28.385Z,97335.81
2023-12-09T18:16:56.789Z,97338.22
2023-12-09T18:19:23.846Z,97343.91
2023-12-09T18:21:51.926Z,97356.63
2023-12-09T18:24:20.145Z,97372.25
2023-12-09T18:26:47.166Z,97378.91
2023-12-09T18:29:14.337Z,97365.81
2023-12-09T18:31:44.041Z,97357.88
2023-12-09T18:34:11.715Z,97346.66
2023-12-09T18:36:38.962Z,97334.78
2023-12-09T18:39:06.367Z,97314.97
2023-12-09T18:41:33.314Z,97316.81
2023-12-09T18:44:00.167Z,97306.41
2023-12-09T18:46:27.102Z,97310.75
2023-12-09T18:48:55.554Z,97311.66
2023-12-09T18:51:22.648Z,97296.97
2023-12-09T18:53:49.804Z,97320.44
2023-12-09T18:56:16.718Z,97328.75
2023-12-09T18:58:43.946Z,97321.97
2023-12-09T19:01:11.869Z,97307.28
2023-12-09T19:03:40.181Z,97304.16
2023-12-09T19:06:09.736Z,97305.66
2023-12-09T19:08:38.676Z,97301.03
2023-12-09T19:11:06.872Z,97314.47
2023-12-09T19:13:34.453Z,97324.22
2023-12-09T19:16:01.391Z,97333.00
2023-12-09T19:18:28.405Z,97331.97
2023-12-09T19:20:55.448Z,97335.28
2023-12-09T19:23:22.492Z,97315.03
2023-12-09T19:25:49.999Z,97332.69
2023-12-09T19:28:17.018Z,97342.06
2023-12-09T19:30:43.950Z,97334.75
2023-12-09T19:33:11.169Z,97338.97
2023-12-09T19:35:38.201Z,97333.06
2023-12-09T19:38:05.168Z,97337.84
2023-12-09T19:40:32.005Z,97338.97
2023-12-09T19:42:59.994Z,97333.81
2023-12-09T19:45:27.259Z,97325.75
2023-12-09T19:47:57.358Z,97345.78
2023-12-09T19:50:25.219Z,97346.41
2023-12-09T19:52:52.472Z,97347.13
2023-12-09T19:55:19.476Z,97348.25
2023-12-09T19:57:46.363Z,97345.22
2023-12-09T20:00:16.101Z,97350.91
2023-12-09T20:02:45.435Z,97347.06
2023-12-09T20:05:12.660Z,97353.94
2023-12-09T20:07:39.598Z,97365.78
2023-12-09T20:10:07.227Z,97348.53
2023-12-09T20:12:34.155Z,97379.47
2023-12-09T20:15:01.030Z,97381.13
2023-12-09T20:17:27.989Z,97389.31
2023-12-09T20:19:54.876Z,97382.41
2023-12-09T20:22:21.834Z,97394.16
2023-12-09T20:24:48.734Z,97383.13
2023-12-09T20:27:16.102Z,97389.22
2023-12-09T20:29:42.943Z,97384.88
2023-12-09T20:32:10.163Z,97387.25
2023-12-09T20:34:37.092Z,97385.22
2023-12-09T20:37:04.066Z,97400.59
2023-12-09T20:39:31.067Z,97390.72
2023-12-09T20:41:57.991Z,97399.09
2023-12-09T20:44:24.859Z,97406.81
2023-12-09T20:46:51.843Z,97416.75
2023-12-09T20:49:18.972Z,97411.59
2023-12-09T20:51:46.089Z,97422.66
2023-12-09T20:54:14.483Z,97405.63
2023-12-09T20:56:41.431Z,97418.22
2023-12-09T20:59:09.844Z,97427.31
2023-12-09T21:01:46.545Z,97432.56
2023-12-09T21:04:14.939Z,97442.69
2023-12-09T21:06:41.944Z,97454.16
2023-12-09T21:09:10.614Z,97450.44
2023-12-09T21:11:38.964Z,97459.09
2023-12-09T21:14:07.622Z,97443.56
2023-12-09T21:16:38.947Z,97453.69
2023-12-09T21:19:06.520Z,97455.88
2023-12-09T21:21:34.574Z,97449.56
2023-12-09T21:24:01.610Z,97484.34
2023-12-09T21:26:28.443Z,97478.91
2023-12-09T21:28:55.313Z,97481.59
2023-12-09T21:31:22.204Z,97473.50
2023-12-09T21:33:49.264Z,97499.34
2023-12-09T21:36:17.520Z,97497.50
2023-12-09T21:38:45.091Z,97505.34
2023-12-09T21:41:20.518Z,97507.81
2023-12-09T21:43:51.332Z,97516.59
2023-12-09T21:46:20.961Z,97519.16
2023-12-09T21:48:51.627Z,97520.06
2023-12-09T21:51:22.148Z,97529.28
2023-12-09T21:53:49.888Z,97539.81
2023-12-09T21:56:24.615Z,97561.88
2023-12-09T21:58:52.745Z,97572.03
2023-12-09T22:01:20.837Z,97572.38
2023-12-09T22:03:49.909Z,97574.31
2023-12-09T22:06:17.030Z,97593.94
2023-12-09T22:08:45.037Z,97586.19
2023-12-09T22:11:15.027Z,97576.63
2023-12-09T22:13:42.094Z,97574.97
2023-12-09T22:16:09.379Z,97553.41
2023-12-09T22:18:36.529Z,97582.06
2023-12-09T22:21:03.892Z,97583.59
2023-12-09T22:23:30.806Z,97589.69
2023-12-09T22:25:57.772Z,97583.13
2023-12-09T22:28:24.679Z,97578.44
2023-12-09T22:30:51.568Z,97590.44
2023-12-09T22:33:19.145Z,97596.31
2023-12-09T22:35:46.067Z,97601.47
2023-12-09T22:38:14.123Z,97606.63
2023-12-09T22:40:41.277Z,97593.19
2023-12-09T22:43:08.274Z,97614.09
2023-12-09T22:45:35.483Z,97617.22
2023-12-09T22:48:02.820Z,97624.31
2023-12-09T22:50:29.837Z,97622.84
2023-12-09T22:52:56.688Z,97637.31
2023-12-09T22:55:24.147Z,97635.44
2023-12-09T22:57:51.070Z,97645.13
2023-12-09T23:00:26.981Z,97667.25
2023-12-09T23:02:54.047Z,97694.81
2023-12-09T23:05:20.864Z,97722.41
2023-12-09T23:07:47.693Z,97725.25
2023-12-09T23:10:15.496Z,97713.47
2023-12-09T23:12:42.883Z,97721.66
2023-12-09T23:15:10.708Z,97720.28
2023-12-09T23:17:37.750Z,97718.25
2023-12-09T23:20:05.435Z,97737.63
2023-12-09T23:22:32.289Z,97753.75
2023-12-09T23:24:59.111Z,97759.47
2023-12-09T23:27:26.235Z,97761.09
2023-12-09T23:29:53.045Z,97765.81
2023-12-09T23:32:19.881Z,97775.50
2023-12-09T23:34:46.782Z,97779.09
2023-12-09T23:37:13.735Z,97785.91
2023-12-09T23:39:40.576Z,97798.56
2023-12-09T23:42:07.743Z,97808.88
2023-12-09T23:44:35.232Z,97829.91
2023-12-09T23:47:02.140Z,97829.47
2023-12-09T23:49:29.170Z,97833.25
2023-12-09T23:51:56.246Z,97844.13
2023-12-09T23:54:23.946Z,97851.72
2023-12-09T23:56:51.006Z,97861.94
2023-12-09T23:59:17.836Z,97867.13
